Time;durP1;ratioP1;P1;durP2;ratioP2;P2;SDS_P1;SDS_P2;PMS_P1;PMS_P2;Temp;Humidity;BMP_temperature;BMP_pressure;BME280_temperature;BME280_humidity;BME280_pressure;Samples;Min_cycle;Max_cycle;Signal;HPM_P1;HPM_P2
2021/11/01 00:03:13;;;;;;;3.53;2.30;;;;;;;15.82;76.73;98652.31;10145733;29;20131;-72
2021/11/01 00:08:15;;;;;;;3.25;2.45;;;;;;;15.76;77.56;98660.25;10135952;29;20666;-71
2021/11/01 00:13:17;;;;;;;3.20;2.88;;;;;;;15.74;78.57;98647.03;10139756;29;20060;-72
2021/11/01 00:18:18;;;;;;;4.93;2.60;;;;;;;15.63;80.11;98666.38;10141269;29;20060;-72
2021/11/01 00:23:20;;;;;;;4.88;2.55;;;;;;;15.59;81.65;98643.66;10134744;29;20583;-71
2021/11/01 00:28:21;;;;;;;3.95;2.45;;;;;;;15.54;81.58;98661.13;10158833;29;22275;-72
2021/11/01 00:33:24;;;;;;;3.20;2.15;;;;;;;15.56;81.95;98669.81;10159490;29;20070;-72
2021/11/01 00:38:25;;;;;;;3.30;2.15;;;;;;;15.51;82.81;98674.94;10142010;29;20623;-71
2021/11/01 00:43:27;;;;;;;3.97;2.75;;;;;;;15.42;83.48;98692.19;10126377;29;20060;-73
2021/11/01 00:48:28;;;;;;;4.93;2.85;;;;;;;15.33;83.81;98698.72;10144965;29;20062;-71
2021/11/01 00:53:32;;;;;;;3.35;2.55;;;;;;;15.34;84.04;98705.72;10129513;29;20135;-71
2021/11/01 00:58:34;;;;;;;3.90;3.10;;;;;;;15.37;84.21;98705.34;10134556;29;20075;-71
2021/11/01 01:03:35;;;;;;;3.50;3.15;;;;;;;15.48;84.07;98702.16;10144168;29;20051;-72
2021/11/01 01:08:37;;;;;;;3.75;3.13;;;;;;;15.46;83.99;98712.25;10138319;29;20452;-71
2021/11/01 01:13:39;;;;;;;4.60;3.47;;;;;;;15.49;83.56;98722.59;10138077;29;20139;-72
2021/11/01 01:18:41;;;;;;;3.03;2.72;;;;;;;15.41;83.10;98695.88;10120992;29;20068;-71
2021/11/01 01:23:43;;;;;;;3.92;1.95;;;;;;;15.45;81.96;98701.72;10139548;29;20558;-70
2021/11/01 01:28:44;;;;;;;4.20;2.03;;;;;;;15.34;81.66;98701.19;10140000;29;20135;-73
2021/11/01 01:33:46;;;;;;;3.28;1.33;;;;;;;15.38;82.13;98717.72;10123122;29;20096;-72
2021/11/01 01:38:49;;;;;;;3.60;1.30;;;;;;;15.39;82.95;98719.41;10124496;29;20571;-73
2021/11/01 01:43:54;;;;;;;2.20;1.17;;;;;;;15.34;83.74;98748.59;10140021;29;20507;-71
2021/11/01 01:48:56;;;;;;;3.78;1.50;;;;;;;15.14;82.76;98759.97;10139262;29;20127;-73
2021/11/01 01:53:59;;;;;;;5.57;1.75;;;;;;;15.04;82.91;98754.06;10135921;29;20048;-71
2021/11/01 01:59:03;;;;;;;3.58;1.10;;;;;;;14.98;80.14;98781.63;10138092;29;20087;-73
2021/11/01 02:04:09;;;;;;;3.72;1.02;;;;;;;14.78;78.55;98809.00;10138748;29;20586;-70
2021/11/01 02:09:21;;;;;;;1.73;0.75;;;;;;;14.63;78.50;98806.31;10143082;29;20083;-72
2021/11/01 02:14:27;;;;;;;4.63;0.73;;;;;;;14.54;77.95;98801.22;10124332;29;20153;-71
2021/11/01 02:19:36;;;;;;;2.42;0.40;;;;;;;14.53;77.25;98795.03;10138792;29;20253;-71
2021/11/01 02:24:50;;;;;;;4.55;1.27;;;;;;;14.57;79.32;98784.78;10139894;29;20507;-72
2021/11/01 02:29:53;;;;;;;3.58;1.05;;;;;;;14.60;78.88;98779.06;10118978;29;20064;-71
2021/11/01 02:34:55;;;;;;;4.15;0.57;;;;;;;14.49;76.14;98775.81;10147651;29;20620;-71
2021/11/01 02:39:57;;;;;;;3.35;1.02;;;;;;;14.46;77.20;98765.50;10129535;29;20142;-72
2021/11/01 02:44:59;;;;;;;2.50;0.52;;;;;;;14.50;79.01;98782.84;10129144;29;20136;-72
2021/11/01 02:50:04;;;;;;;2.03;0.57;;;;;;;14.43;78.68;98781.09;10137913;29;20108;-72
2021/11/01 02:55:07;;;;;;;4.47;0.55;;;;;;;14.42;79.30;98774.91;10128981;29;20135;-72
2021/11/01 03:00:11;;;;;;;5.10;0.90;;;;;;;14.29;78.60;98756.81;10155629;29;20048;-72
2021/11/01 03:05:17;;;;;;;3.25;1.23;;;;;;;14.21;79.79;98745.38;10177884;29;20059;-74
2021/11/01 03:10:20;;;;;;;6.38;0.90;;;;;;;14.12;79.46;98761.50;10177844;29;20078;-74
2021/11/01 03:15:24;;;;;;;6.07;1.08;;;;;;;14.12;79.50;98734.72;10164529;29;20064;-72
2021/11/01 03:20:30;;;;;;;3.97;1.27;;;;;;;13.97;80.04;98720.53;10153652;29;20083;-72
2021/11/01 03:25:37;;;;;;;4.07;1.17;;;;;;;13.84;79.87;98715.81;10149843;29;20052;-73
2021/11/01 03:30:40;;;;;;;7.47;0.98;;;;;;;13.77;78.86;98736.28;10120363;29;20040;-71
2021/11/01 03:35:46;;;;;;;5.10;1.17;;;;;;;13.60;78.28;98768.50;10148582;29;20437;-71
2021/11/01 03:40:48;;;;;;;5.45;1.20;;;;;;;13.55;79.93;98791.44;10148296;29;20111;-72
2021/11/01 03:45:50;;;;;;;6.32;1.10;;;;;;;13.38;79.84;98806.75;10131632;29;20142;-72
2021/11/01 03:51:06;;;;;;;4.53;1.08;;;;;;;13.30;80.75;98799.59;10152001;29;20146;-72
2021/11/01 03:56:08;;;;;;;3.47;1.23;;;;;;;13.30;79.98;98804.94;10133423;29;20036;-72
2021/11/01 04:01:10;;;;;;;3.40;0.70;;;;;;;13.19;81.02;98824.03;10152745;29;20074;-71
2021/11/01 04:06:12;;;;;;;2.65;0.70;;;;;;;13.08;81.78;98806.56;10146757;29;20052;-74
2021/11/01 04:11:13;;;;;;;2.00;0.50;;;;;;;13.11;80.00;98805.38;10142537;29;20127;-72
2021/11/01 04:16:20;;;;;;;3.45;0.50;;;;;;;13.14;79.83;98783.66;10142089;29;20135;-72
2021/11/01 04:21:22;;;;;;;3.33;1.13;;;;;;;13.16;80.67;98787.78;10126457;29;20426;-72
2021/11/01 04:26:24;;;;;;;1.92;0.47;;;;;;;13.15;78.48;98785.31;10122202;29;20142;-71
2021/11/01 04:31:30;;;;;;;5.70;1.10;;;;;;;12.97;75.89;98762.38;10144211;29;20071;-73
2021/11/01 04:36:32;;;;;;;2.97;0.52;;;;;;;13.11;76.46;98773.31;10120996;29;20044;-74
2021/11/01 04:57:17;;;;;;;3.15;0.65;;;;;;;12.81;81.48;98815.88;10168874;29;20067;-73
2021/11/01 05:02:20;;;;;;;6.00;1.20;;;;;;;12.71;82.67;98808.88;10155999;29;20490;-73
2021/11/01 05:07:23;;;;;;;4.93;0.95;;;;;;;12.64;83.84;98815.94;10139925;29;20064;-70
2021/11/01 05:12:42;;;;;;;3.28;1.15;;;;;;;12.55;84.92;98807.09;10141054;29;20116;-72
2021/11/01 05:23:04;;;;;;;3.25;0.77;;;;;;;12.53;86.09;98814.44;10140953;29;20056;-72
2021/11/01 05:38:46;;;;;;;5.32;1.42;;;;;;;12.42;87.63;98816.66;10135993;29;20530;-71
2021/11/01 05:43:48;;;;;;;2.05;1.05;;;;;;;12.40;87.54;98810.63;10123710;29;20048;-72
2021/11/01 05:48:51;;;;;;;1.70;1.10;;;;;;;12.31;88.87;98813.34;10158279;29;20059;-72
2021/11/01 05:53:57;;;;;;;2.88;1.10;;;;;;;12.30;88.42;98819.66;10175255;29;20055;-72
2021/11/01 06:14:26;;;;;;;5.47;1.52;;;;;;;12.01;90.29;98836.22;10133120;29;20120;-75
2021/11/01 06:19:27;;;;;;;3.97;1.75;;;;;;;11.94;90.70;98845.88;10111529;29;20051;-73
2021/11/01 06:29:35;;;;;;;4.45;1.85;;;;;;;12.03;90.10;98860.88;10127553;29;20550;-73
2021/11/01 06:45:39;;;;;;;4.85;2.33;;;;;;;12.01;90.88;98878.91;10125973;29;20040;-74
2021/11/01 07:17:34;;;;;;;4.28;2.88;;;;;;;11.91;91.84;98903.00;10128836;29;20147;-72
2021/11/01 08:21:39;;;;;;;5.60;2.63;;;;;;;12.12;89.40;98960.41;10134906;29;20073;-72
2021/11/01 08:27:24;;;;;;;4.20;2.70;;;;;;;12.28;88.48;98959.56;10171425;29;20076;-77
2021/11/01 08:38:06;;;;;;;5.70;2.72;;;;;;;12.31;87.41;98944.09;10171108;29;20040;-74
2021/11/01 08:48:31;;;;;;;7.05;2.60;;;;;;;12.33;87.30;98936.72;10131981;29;20072;-74
2021/11/01 09:20:16;;;;;;;8.07;3.88;;;;;;;12.73;83.90;98911.00;10133845;29;20056;-73
2021/11/01 09:35:50;;;;;;;4.80;1.50;;;;;;;12.77;82.39;98937.38;10134022;29;20123;-74
2021/11/01 09:46:01;;;;;;;4.25;1.80;;;;;;;12.61;82.52;98930.19;10133356;29;20143;-71
2021/11/01 09:51:03;;;;;;;6.05;1.90;;;;;;;12.76;81.54;98933.88;10132663;29;20064;-74
2021/11/01 09:56:17;;;;;;;7.72;1.70;;;;;;;13.14;78.70;98919.91;10117737;29;20134;-73
2021/11/01 10:01:22;;;;;;;5.22;1.63;;;;;;;13.26;78.02;98923.88;10132222;29;20052;-74
2021/11/01 10:06:27;;;;;;;7.35;1.40;;;;;;;13.19;78.15;98944.25;10131200;29;20422;-74
2021/11/01 10:11:36;;;;;;;7.90;1.95;;;;;;;13.29;77.96;98926.19;10114278;29;20139;-74
2021/11/01 10:22:22;;;;;;;6.22;1.55;;;;;;;13.11;78.07;98929.09;10131130;29;20055;-74
2021/11/01 10:27:47;;;;;;;8.95;1.88;;;;;;;13.00;78.89;98922.28;10132628;29;20471;-75
2021/11/01 10:32:50;;;;;;;8.80;2.15;;;;;;;13.26;77.85;98899.81;10134023;29;20700;-74
2021/11/01 10:38:31;;;;;;;6.00;1.55;;;;;;;13.59;74.78;98910.38;10139339;29;20139;-73
2021/11/01 11:10:56;;;;;;;6.75;2.17;;;;;;;13.43;74.39;98887.22;10136115;29;20053;-74
2021/11/01 11:16:01;;;;;;;7.75;1.67;;;;;;;13.49;75.02;98899.06;10155572;29;20092;-74
2021/11/01 11:21:20;;;;;;;6.28;1.65;;;;;;;13.77;73.97;98873.47;10150289;29;20138;-72
2021/11/01 11:26:42;;;;;;;8.13;1.73;;;;;;;13.89;71.57;98873.09;10139713;29;20116;-73
2021/11/01 11:42:38;;;;;;;5.82;1.30;;;;;;;14.13;70.48;98862.16;10139192;29;20052;-74
2021/11/01 11:47:47;;;;;;;3.42;1.60;;;;;;;16.57;61.54;98861.13;10139578;29;20141;-71
2021/11/01 11:52:49;;;;;;;5.10;1.00;;;;;;;17.99;54.84;98859.66;10134046;29;20107;-71
2021/11/01 11:58:12;;;;;;;4.10;1.20;;;;;;;16.59;59.46;98869.84;10141626;29;20180;-72
2021/11/01 12:03:18;;;;;;;7.00;2.70;;;;;;;16.82;60.17;98860.69;10116952;29;20056;-71
2021/11/01 12:08:27;;;;;;;5.22;1.38;;;;;;;15.90;61.03;98856.06;10122418;29;20044;-74
2021/11/01 12:18:48;;;;;;;5.18;1.50;;;;;;;14.43;66.13;98843.50;10153881;29;20051;-73
2021/11/01 12:23:50;;;;;;;6.97;2.15;;;;;;;14.29;66.25;98849.66;10134125;29;20131;-73
2021/11/01 12:28:57;;;;;;;6.55;1.40;;;;;;;13.99;67.84;98852.28;10137293;29;20127;-73
2021/11/01 12:39:09;;;;;;;5.88;1.23;;;;;;;13.72;70.06;98850.94;10139152;29;20075;-73
2021/11/01 12:59:56;;;;;;;9.73;2.22;;;;;;;13.67;70.47;98838.13;10137518;29;20056;-74
2021/11/01 13:05:04;;;;;;;4.85;1.17;;;;;;;13.50;71.59;98839.25;10134745;29;20112;-74
2021/11/01 13:21:23;;;;;;;3.95;1.35;;;;;;;14.08;72.24;98813.72;10137537;29;20065;-72
2021/11/01 13:27:15;;;;;;;2.72;1.23;;;;;;;14.92;67.87;98825.25;10148672;29;20071;-73
2021/11/01 13:37:34;;;;;;;7.60;1.77;;;;;;;14.72;68.91;98809.72;10144584;29;20056;-73
2021/11/01 13:42:39;;;;;;;4.75;1.50;;;;;;;14.19;69.44;98803.59;10120169;29;20162;-74
2021/11/01 13:47:47;;;;;;;3.58;1.20;;;;;;;14.01;70.19;98796.75;10117154;29;20134;-74
2021/11/01 13:53:04;;;;;;;2.90;1.08;;;;;;;13.61;71.01;98802.22;10149490;29;20028;-73
2021/11/01 13:58:54;;;;;;;6.55;1.58;;;;;;;13.52;73.65;98807.81;10152542;29;20036;-74
2021/11/01 14:20:25;;;;;;;7.03;1.95;;;;;;;12.69;81.59;98829.56;10142954;29;20493;-74
2021/11/01 14:30:50;;;;;;;5.95;1.77;;;;;;;13.41;81.63;98817.09;10129691;29;20048;-74
2021/11/01 14:36:15;;;;;;;3.60;1.67;;;;;;;15.89;69.32;98811.47;10111447;29;20063;-73
2021/11/01 15:18:34;;;;;;;3.25;1.50;;;;;;;12.79;80.13;98809.84;10131578;29;20175;-72
2021/11/01 16:21:55;;;;;;;2.60;0.60;;;;;;;11.43;78.74;98828.13;10138984;29;20124;-73
2021/11/01 16:26:57;;;;;;;2.33;1.27;;;;;;;11.46;79.09;98843.78;10138833;29;20048;-75
2021/11/01 16:32:05;;;;;;;2.13;0.63;;;;;;;11.31;79.62;98837.44;10133233;29;20396;-74
2021/11/01 16:42:09;;;;;;;1.95;0.68;;;;;;;11.19;80.27;98836.91;10160133;29;20056;-74
2021/11/01 16:47:11;;;;;;;1.63;0.85;;;;;;;11.11;79.65;98842.22;10140721;29;20055;-75
2021/11/01 16:52:16;;;;;;;5.68;0.90;;;;;;;11.15;79.61;98862.19;10135094;29;20148;-73
2021/11/01 16:57:28;;;;;;;3.38;0.70;;;;;;;11.15;80.12;98846.22;10113464;29;20059;-72
2021/11/01 17:07:44;;;;;;;3.97;0.95;;;;;;;10.88;80.07;98858.75;10132258;29;20491;-72
2021/11/01 18:54:34;;;;;;;3.78;2.75;;;;;;;11.07;82.16;98860.34;10125522;29;20048;-74
2021/11/01 18:59:37;;;;;;;6.60;3.05;;;;;;;11.11;82.47;98863.53;10130037;29;20068;-74
2021/11/01 19:04:48;;;;;;;5.80;4.03;;;;;;;11.09;83.30;98863.69;10119681;29;20057;-73
2021/11/01 19:10:10;;;;;;;5.47;2.92;;;;;;;11.12;82.99;98857.19;10106412;29;20060;-75
2021/11/01 21:29:14;;;;;;;5.95;5.28;;;;;;;10.81;81.54;98852.44;10130532;29;20060;-73
2021/11/01 21:34:26;;;;;;;6.80;6.10;;;;;;;10.64;82.20;98840.84;10110217;29;20049;-74
2021/11/01 21:39:28;;;;;;;7.45;5.57;;;;;;;10.69;81.92;98840.38;10113301;29;20060;-74
2021/11/01 21:44:35;;;;;;;8.52;6.30;;;;;;;10.66;81.60;98835.38;10119955;29;20071;-73
2021/11/01 21:49:36;;;;;;;8.05;7.00;;;;;;;10.60;81.78;98842.19;10111609;29;20048;-72
2021/11/01 21:54:51;;;;;;;9.02;7.95;;;;;;;10.64;82.05;98840.03;10140257;29;20051;-75
2021/11/01 22:20:53;;;;;;;8.73;5.20;;;;;;;10.85;83.34;98829.78;10137983;29;20040;-73
2021/11/01 22:57:42;;;;;;;8.93;8.02;;;;;;;10.52;81.98;98789.72;10136759;29;20059;-72
2021/11/01 23:02:45;;;;;;;8.73;7.93;;;;;;;10.48;82.35;98793.72;10116301;29;20116;-72
2021/11/01 23:34:28;;;;;;;7.97;7.28;;;;;;;10.27;82.47;98762.97;10148014;29;20044;-73
2021/11/01 23:39:29;;;;;;;9.07;7.25;;;;;;;10.30;82.55;98761.00;10142540;29;20587;-73
2021/11/01 23:44:31;;;;;;;7.07;6.38;;;;;;;10.27;82.63;98757.66;10134401;29;20044;-73
2021/11/01 23:49:32;;;;;;;6.80;6.20;;;;;;;10.29;82.86;98764.66;10129117;29;20276;-72
2021/11/01 23:54:39;;;;;;;7.53;6.82;;;;;;;10.31;82.36;98752.03;10123860;29;20116;-73
2021/11/01 23:59:43;;;;;;;8.48;6.60;;;;;;;10.22;83.27;98751.16;10155385;29;20028;-73
